createdAt,value
2024-01-30T00:00:47.110Z,9
2024-01-30T00:01:47.135Z,9
2024-01-30T00:02:47.082Z,8.85714
2024-01-30T00:03:47.100Z,8.85714
2024-01-30T00:04:47.070Z,8.85714
2024-01-30T00:05:47.103Z,9.35714
2024-01-30T00:06:47.102Z,9.35714
2024-01-30T00:07:47.172Z,9
2024-01-30T00:08:47.089Z,9.14286
2024-01-30T00:09:47.114Z,9.5
2024-01-30T00:10:47.100Z,9.14286
2024-01-30T00:11:47.106Z,8.5
2024-01-30T00:12:47.122Z,8
2024-01-30T00:13:47.125Z,9.14286
2024-01-30T00:14:47.188Z,8.5
2024-01-30T00:15:47.176Z,9.21429
2024-01-30T00:16:47.171Z,8.21429
2024-01-30T00:17:47.212Z,8.5
2024-01-30T00:18:47.321Z,8.85714
2024-01-30T00:19:47.272Z,8.71429
2024-01-30T00:20:47.182Z,8.71429
2024-01-30T00:21:47.208Z,8.71429
2024-01-30T00:22:47.189Z,8.85714
2024-01-30T00:23:47.219Z,9.14286
2024-01-30T00:24:47.206Z,8.64286
2024-01-30T00:25:47.218Z,8.14286
2024-01-30T00:26:47.221Z,7.92857
2024-01-30T00:27:47.262Z,8.64286
2024-01-30T00:28:47.249Z,8.85714
2024-01-30T00:29:47.249Z,9.14286
2024-01-30T00:30:47.296Z,8.42857
2024-01-30T00:31:47.265Z,8.85714
2024-01-30T00:32:47.315Z,8.5
2024-01-30T00:33:47.317Z,8.92857
2024-01-30T00:34:47.354Z,7.85714
2024-01-30T00:35:47.288Z,8.35714
2024-01-30T00:36:47.360Z,7.35714
2024-01-30T00:37:47.323Z,8.64286
2024-01-30T00:38:47.314Z,8.35714
2024-01-30T00:39:47.362Z,8.35714
2024-01-30T00:40:47.341Z,8.14286
2024-01-30T00:41:47.394Z,8.42857
2024-01-30T00:42:47.359Z,8.21429
2024-01-30T00:43:47.383Z,8.21429
2024-01-30T00:44:47.364Z,8.42857
2024-01-30T00:45:47.419Z,8.71429
2024-01-30T00:46:47.373Z,8.64286
2024-01-30T00:47:47.452Z,9.21429
2024-01-30T00:48:47.447Z,8.64286
2024-01-30T00:49:47.520Z,8.64286
2024-01-30T00:50:47.397Z,8.85714
2024-01-30T00:51:47.437Z,8.71429
2024-01-30T00:52:47.417Z,9
2024-01-30T00:53:47.437Z,8.71429
2024-01-30T00:54:47.490Z,8.42857
2024-01-30T00:55:47.442Z,8.21429
2024-01-30T00:56:47.456Z,8.35714
2024-01-30T00:57:47.462Z,8.21429
2024-01-30T00:58:47.469Z,8.5
2024-01-30T00:59:47.480Z,8.42857
2024-01-30T01:00:47.609Z,8
2024-01-30T01:01:47.572Z,9.14286
2024-01-30T01:02:47.627Z,8.64286
2024-01-30T01:03:47.560Z,7.71429
2024-01-30T01:04:47.512Z,8.5
2024-01-30T01:05:47.535Z,8.35714
2024-01-30T01:06:47.704Z,8.35714
2024-01-30T01:07:47.609Z,8
2024-01-30T01:08:47.584Z,8.5
2024-01-30T01:09:47.602Z,8.21429
2024-01-30T01:10:47.577Z,8
2024-01-30T01:11:47.580Z,8.5
2024-01-30T01:12:47.604Z,8.85714
2024-01-30T01:13:47.589Z,8.42857
2024-01-30T01:14:47.588Z,8.85714
2024-01-30T01:15:47.672Z,8.64286
2024-01-30T01:16:47.609Z,8.21429
2024-01-30T01:17:47.675Z,8.5
2024-01-30T01:18:47.664Z,8.35714
2024-01-30T01:19:47.727Z,9.14286
2024-01-30T01:20:47.647Z,8.42857
2024-01-30T01:21:47.665Z,8.85714
2024-01-30T01:22:47.656Z,8.21429
2024-01-30T01:23:47.669Z,8.71429
2024-01-30T01:24:47.704Z,8.85714
2024-01-30T01:25:47.671Z,7.85714
2024-01-30T01:26:47.675Z,8.5
2024-01-30T01:27:47.708Z,8.64286
2024-01-30T01:28:47.714Z,9.35714
2024-01-30T01:29:47.706Z,8.85714
2024-01-30T01:30:47.780Z,8.35714
2024-01-30T01:31:47.728Z,8.85714
2024-01-30T01:32:47.805Z,8.71429
2024-01-30T01:33:47.913Z,8.64286
2024-01-30T01:34:47.816Z,8.92857
2024-01-30T01:35:47.756Z,8.64286
2024-01-30T01:36:47.810Z,8
2024-01-30T01:37:47.768Z,8.5
2024-01-30T01:38:47.774Z,8.64286
2024-01-30T01:39:47.795Z,8.5
2024-01-30T01:40:47.767Z,8.5
2024-01-30T01:41:47.797Z,8.35714
2024-01-30T01:42:47.814Z,9.21429
2024-01-30T01:43:47.802Z,8.5
2024-01-30T01:44:47.816Z,8.64286
2024-01-30T01:45:47.855Z,8.92857
2024-01-30T01:46:47.832Z,8.92857
2024-01-30T01:47:47.870Z,8.42857
2024-01-30T01:48:47.980Z,8.92857
2024-01-30T01:49:47.950Z,8.14286
2024-01-30T01:50:47.900Z,7.5
2024-01-30T01:51:47.922Z,8.42857
2024-01-30T01:52:47.854Z,9
2024-01-30T01:53:47.868Z,8.71429
2024-01-30T01:54:47.892Z,8.21429
2024-01-30T01:55:47.891Z,8.85714
2024-01-30T01:56:47.894Z,8.5
2024-01-30T01:57:47.921Z,8.5
2024-01-30T01:58:47.910Z,8.21429
2024-01-30T01:59:47.915Z,8.42857
2024-01-30T02:00:47.995Z,8.64286
2024-01-30T02:01:48.080Z,8.85714
2024-01-30T02:02:47.939Z,8.71429
2024-01-30T02:03:48.031Z,8.42857
2024-01-30T02:04:48.043Z,8.5
2024-01-30T02:05:47.978Z,8.21429
2024-01-30T02:06:48.063Z,8.85714
2024-01-30T02:07:48.057Z,8.64286
2024-01-30T02:08:47.982Z,8.71429
2024-01-30T02:09:48.043Z,8.71429
2024-01-30T02:10:48.004Z,8.35714
2024-01-30T02:11:48.013Z,8.14286
2024-01-30T02:12:48.072Z,7.92857
2024-01-30T02:13:48.039Z,8.42857
2024-01-30T02:14:48.058Z,8.35714
2024-01-30T02:15:48.160Z,8.85714
2024-01-30T02:16:48.054Z,8.71429
2024-01-30T02:17:48.119Z,8
2024-01-30T02:18:48.108Z,8.42857
2024-01-30T02:19:48.235Z,8.14286
2024-01-30T02:20:48.090Z,9.14286
2024-01-30T02:21:48.149Z,8.35714
2024-01-30T02:22:48.098Z,8
2024-01-30T02:23:48.130Z,8.64286
2024-01-30T02:24:48.161Z,7.85714
2024-01-30T02:25:48.123Z,8
2024-01-30T02:26:48.125Z,8.14286
2024-01-30T02:27:48.169Z,8.35714
2024-01-30T02:28:48.149Z,8.35714
2024-01-30T02:29:48.142Z,8.71429
2024-01-30T02:30:48.176Z,8.14286
2024-01-30T02:31:48.175Z,8.21429
2024-01-30T02:32:48.217Z,8.35714
2024-01-30T02:33:48.210Z,8.5
2024-01-30T02:34:48.245Z,8
2024-01-30T02:35:48.201Z,7.85714
2024-01-30T02:36:48.238Z,8.5
2024-01-30T02:37:48.218Z,8.21429
2024-01-30T02:38:48.224Z,8
2024-01-30T02:39:48.263Z,7.85714
2024-01-30T02:40:48.231Z,8.92857
2024-01-30T02:41:48.240Z,8.64286
2024-01-30T02:42:48.283Z,7.92857
2024-01-30T02:43:48.257Z,8.42857
2024-01-30T02:44:48.258Z,8.42857
2024-01-30T02:45:48.272Z,8
2024-01-30T02:46:48.275Z,8.21429
2024-01-30T02:47:48.318Z,8.21429
2024-01-30T02:48:48.323Z,8
2024-01-30T02:49:48.418Z,8.21429
2024-01-30T02:50:48.345Z,8.5
2024-01-30T02:51:48.346Z,7.85714
2024-01-30T02:52:48.326Z,8.21429
2024-01-30T02:53:48.330Z,8.5
2024-01-30T02:54:48.357Z,8.35714
2024-01-30T02:55:48.333Z,8.92857
2024-01-30T02:56:48.340Z,8.92857
2024-01-30T02:57:48.431Z,7.85714
2024-01-30T02:58:48.367Z,8.35714
2024-01-30T02:59:48.384Z,8.42857
2024-01-30T03:00:48.541Z,7.5
2024-01-30T03:01:48.447Z,8.71429
2024-01-30T03:02:48.399Z,8.71429
2024-01-30T03:03:48.463Z,7.92857
2024-01-30T03:04:48.425Z,8
2024-01-30T03:05:48.415Z,8.64286
2024-01-30T03:06:48.907Z,7.92857
2024-01-30T03:07:48.512Z,8.21429
2024-01-30T03:08:48.444Z,8.92857
2024-01-30T03:09:48.463Z,8
2024-01-30T03:10:48.457Z,8.21429
2024-01-30T03:11:48.464Z,8.64286
2024-01-30T03:12:48.509Z,7.85714
2024-01-30T03:13:48.490Z,8.5
2024-01-30T03:14:48.493Z,8.21429
2024-01-30T03:15:48.528Z,8
2024-01-30T03:16:48.519Z,8.64286
2024-01-30T03:17:48.532Z,8.64286
2024-01-30T03:18:48.584Z,8.21429
2024-01-30T03:19:48.669Z,8.71429
2024-01-30T03:20:48.538Z,8.21429
2024-01-30T03:21:48.568Z,7.92857
2024-01-30T03:22:48.560Z,8.42857
2024-01-30T03:23:48.567Z,8.71429
2024-01-30T03:24:48.675Z,8
2024-01-30T03:25:48.577Z,8.42857
2024-01-30T03:26:48.595Z,8.92857
2024-01-30T03:27:48.627Z,8.21429
2024-01-30T03:28:48.613Z,8.14286
2024-01-30T03:29:48.618Z,8.42857
2024-01-30T03:30:48.652Z,7.92857
2024-01-30T03:31:48.641Z,7.92857
2024-01-30T03:32:48.670Z,8.21429
2024-01-30T03:33:48.674Z,8.64286
2024-01-30T03:34:48.738Z,8.14286
2024-01-30T03:35:48.660Z,8
2024-01-30T03:36:48.730Z,8.35714
2024-01-30T03:37:48.674Z,8.14286
2024-01-30T03:38:48.687Z,7.92857
2024-01-30T03:39:48.724Z,8.21429
2024-01-30T03:40:48.718Z,7.85714
2024-01-30T03:41:48.711Z,8.42857
2024-01-30T03:42:48.744Z,8
2024-01-30T03:43:48.719Z,8
2024-01-30T03:44:48.719Z,8.5
2024-01-30T03:45:48.770Z,8.42857
2024-01-30T03:46:48.728Z,8.35714
2024-01-30T03:47:48.770Z,8
2024-01-30T03:48:48.778Z,8.64286
2024-01-30T03:49:48.798Z,8.71429
2024-01-30T03:50:48.791Z,8.14286
2024-01-30T03:51:48.961Z,8.14286
2024-01-30T03:52:48.811Z,7.85714
2024-01-30T03:53:48.826Z,8.35714
2024-01-30T03:54:48.875Z,8.42857
2024-01-30T03:55:48.825Z,8.14286
2024-01-30T03:56:48.823Z,8.14286
2024-01-30T03:57:48.843Z,9
2024-01-30T03:58:48.831Z,8.35714
2024-01-30T03:59:48.840Z,9.21429
2024-01-30T04:00:48.905Z,8.5
2024-01-30T04:01:49.040Z,8
2024-01-30T04:02:48.911Z,8.85714
2024-01-30T04:03:49.055Z,8.21429
2024-01-30T04:04:49.016Z,8
2024-01-30T04:05:48.929Z,8.5
2024-01-30T04:06:48.936Z,8.42857
2024-01-30T04:07:48.910Z,8.5
2024-01-30T04:08:48.898Z,8
2024-01-30T04:09:48.990Z,8.92857
2024-01-30T04:10:48.908Z,9.21429
2024-01-30T04:11:48.918Z,8.5
2024-01-30T04:12:48.953Z,8.35714
2024-01-30T04:13:48.941Z,8
2024-01-30T04:14:48.955Z,8.85714
2024-01-30T04:15:48.974Z,8.71429
2024-01-30T04:16:48.970Z,8.21429
2024-01-30T04:17:49.073Z,8.71429
2024-01-30T04:18:49.043Z,8.71429
2024-01-30T04:19:49.123Z,8.21429
2024-01-30T04:20:48.989Z,8.71429
2024-01-30T04:21:49.043Z,8.71429
2024-01-30T04:22:48.993Z,8.64286
2024-01-30T04:23:48.996Z,9
2024-01-30T04:24:49.089Z,8.21429
2024-01-30T04:25:49.010Z,7.85714
2024-01-30T04:26:49.022Z,8.85714
2024-01-30T04:27:49.069Z,8.21429
2024-01-30T04:28:49.046Z,8.5
2024-01-30T04:29:49.044Z,8.5
2024-01-30T04:30:49.144Z,8.35714
2024-01-30T04:31:49.069Z,8.64286
2024-01-30T04:32:49.126Z,8.21429
2024-01-30T04:33:49.205Z,8.64286
2024-01-30T04:34:49.256Z,9.14286
2024-01-30T04:35:49.068Z,8.64286
2024-01-30T04:36:49.089Z,8.85714
2024-01-30T04:37:49.101Z,8.64286
2024-01-30T04:38:49.107Z,8.5
2024-01-30T04:39:49.137Z,8.64286
2024-01-30T04:40:49.116Z,8.5
2024-01-30T04:41:49.127Z,8.5
2024-01-30T04:42:49.188Z,9.14286
2024-01-30T04:43:49.146Z,8.5
2024-01-30T04:44:49.146Z,8.64286
2024-01-30T04:45:49.230Z,7.85714
2024-01-30T04:46:49.160Z,8.35714
2024-01-30T04:47:49.191Z,7.85714
2024-01-30T04:48:49.229Z,8.35714
2024-01-30T04:49:49.236Z,8.35714
2024-01-30T04:50:49.197Z,8.5
2024-01-30T04:51:49.234Z,8.35714
2024-01-30T04:52:49.215Z,8.21429
2024-01-30T04:53:49.239Z,8.64286
2024-01-30T04:54:49.249Z,8.14286
2024-01-30T04:55:49.252Z,8.21429
2024-01-30T04:56:49.257Z,8
2024-01-30T04:57:49.304Z,8.42857
2024-01-30T04:58:49.255Z,7.92857
2024-01-30T04:59:49.260Z,8
2024-01-30T05:00:49.331Z,8.14286
2024-01-30T05:01:49.385Z,7.92857
2024-01-30T05:02:49.301Z,8.42857
2024-01-30T05:03:49.439Z,8.14286
2024-01-30T05:04:49.345Z,8
2024-01-30T05:05:49.313Z,8.5
2024-01-30T05:06:49.340Z,7.92857
2024-01-30T05:07:49.322Z,8.21429
2024-01-30T05:08:49.331Z,7.71429
2024-01-30T05:09:49.378Z,8.21429
2024-01-30T05:10:49.389Z,8.14286
2024-01-30T05:11:49.347Z,8.21429
2024-01-30T05:12:49.384Z,8.5
2024-01-30T05:13:49.360Z,7.64286
2024-01-30T05:14:49.377Z,8.35714
2024-01-30T05:15:49.423Z,7.92857
2024-01-30T05:16:49.400Z,8.42857
2024-01-30T05:17:49.424Z,7.92857
2024-01-30T05:18:49.481Z,9.14286
2024-01-30T05:19:49.704Z,8.14286
2024-01-30T05:20:49.426Z,8.21429
2024-01-30T05:21:49.503Z,7.92857
2024-01-30T05:22:49.461Z,7.71429
2024-01-30T05:23:49.453Z,8.5
2024-01-30T05:24:49.485Z,8
2024-01-30T05:25:49.461Z,8
2024-01-30T05:26:49.489Z,7.92857
2024-01-30T05:27:49.499Z,8
2024-01-30T05:28:49.488Z,8.42857
2024-01-30T05:29:49.497Z,8.21429
2024-01-30T05:30:49.554Z,8.5
2024-01-30T05:31:49.519Z,7.71429
2024-01-30T05:32:49.650Z,7.64286
2024-01-30T05:33:49.718Z,8.21429
2024-01-30T05:34:49.629Z,8.42857
2024-01-30T05:35:49.574Z,8.35714
2024-01-30T05:36:49.595Z,8.5
2024-01-30T05:37:49.568Z,7.64286
2024-01-30T05:38:49.561Z,8.71429
2024-01-30T05:39:49.599Z,8.14286
2024-01-30T05:40:49.575Z,8.42857
2024-01-30T05:41:49.584Z,8.35714
2024-01-30T05:42:49.620Z,7.92857
2024-01-30T05:43:49.608Z,8.14286
2024-01-30T05:44:49.620Z,8.42857
2024-01-30T05:45:49.653Z,8.5
2024-01-30T05:46:49.633Z,8.71429
2024-01-30T05:47:49.702Z,7.92857
2024-01-30T05:48:49.665Z,8.35714
2024-01-30T05:49:49.653Z,8.21429
2024-01-30T05:50:49.700Z,7.92857
2024-01-30T05:51:49.726Z,8.21429
2024-01-30T05:52:49.670Z,8.21429
2024-01-30T05:53:49.675Z,8.42857
2024-01-30T05:54:49.712Z,8.35714
2024-01-30T05:55:49.698Z,8.21429
2024-01-30T05:56:49.697Z,9
2024-01-30T05:57:49.722Z,9.5
2024-01-30T05:58:49.719Z,9.71429
2024-01-30T05:59:49.721Z,9.5
2024-01-30T06:00:49.855Z,9.64286
2024-01-30T06:01:50.100Z,9.14286
2024-01-30T06:02:49.750Z,9
2024-01-30T06:03:49.739Z,8.85714
2024-01-30T06:04:49.808Z,9.92857
2024-01-30T06:05:49.748Z,9.64286
2024-01-30T06:06:49.808Z,10.5
2024-01-30T06:07:49.848Z,10.4286
2024-01-30T06:08:49.778Z,12.7143
2024-01-30T06:09:49.818Z,15.8571
2024-01-30T06:10:49.801Z,19.4286
2024-01-30T06:11:49.802Z,22.3571
2024-01-30T06:12:49.876Z,27.2143
2024-01-30T06:13:49.828Z,26.5
2024-01-30T06:14:49.845Z,24.2143
2024-01-30T06:15:49.880Z,23.1429
2024-01-30T06:16:49.827Z,23.5
2024-01-30T06:17:49.910Z,21.3571
2024-01-30T06:18:49.868Z,20.6429
2024-01-30T06:19:49.855Z,19.4286
2024-01-30T06:20:49.852Z,18.5
2024-01-30T06:21:49.912Z,17.4286
2024-01-30T06:22:49.863Z,15.9286
2024-01-30T06:23:49.872Z,15.1429
2024-01-30T06:24:49.993Z,13.1429
2024-01-30T06:25:49.924Z,13.3571
2024-01-30T06:26:49.887Z,12.6429
2024-01-30T06:27:49.911Z,12.8571
2024-01-30T06:28:49.898Z,12.9286
2024-01-30T06:29:49.901Z,11.9286
2024-01-30T06:30:49.950Z,11.3571
2024-01-30T06:31:49.929Z,11.2143
2024-01-30T06:32:50.049Z,10
2024-01-30T06:33:50.012Z,9.64286
2024-01-30T06:34:49.992Z,9.5
2024-01-30T06:35:49.973Z,9.35714
2024-01-30T06:36:49.994Z,9.42857
2024-01-30T06:37:49.988Z,8.5
2024-01-30T06:38:49.990Z,8.85714
2024-01-30T06:39:50.047Z,8.35714
2024-01-30T06:40:50.025Z,8.21429
2024-01-30T06:41:50.000Z,8.42857
2024-01-30T06:42:50.036Z,8.21429
2024-01-30T06:43:50.029Z,8.35714
2024-01-30T06:44:50.024Z,8.85714
2024-01-30T06:45:50.113Z,8.85714
2024-01-30T06:46:50.048Z,8.5
2024-01-30T06:47:50.101Z,8.71429
2024-01-30T06:48:50.094Z,8.5
2024-01-30T06:49:50.128Z,8.64286
2024-01-30T06:50:50.076Z,8.14286
2024-01-30T06:51:50.118Z,7.92857
2024-01-30T06:52:50.102Z,8.14286
2024-01-30T06:53:50.107Z,8.42857
2024-01-30T06:54:50.129Z,8.85714
2024-01-30T06:55:50.112Z,8.21429
2024-01-30T06:56:50.115Z,7.64286
2024-01-30T06:57:51.661Z,8
2024-01-30T06:58:50.143Z,9.21429
2024-01-30T06:59:50.157Z,8.71429
2024-01-30T07:00:50.257Z,9.14286
2024-01-30T07:01:50.265Z,9.42857
2024-01-30T07:02:50.165Z,15.3571
2024-01-30T07:03:50.315Z,15.2143
2024-01-30T07:04:50.390Z,20.9286
2024-01-30T07:05:50.190Z,26.1429
2024-01-30T07:06:50.290Z,24
2024-01-30T07:07:50.285Z,22.9286
2024-01-30T07:08:50.191Z,23.7143
2024-01-30T07:09:50.258Z,26.3571
2024-01-30T07:10:50.232Z,25
2024-01-30T07:11:50.231Z,25.3571
2024-01-30T07:12:50.307Z,22.4286
2024-01-30T07:13:50.246Z,24.1429
2024-01-30T07:14:50.255Z,23.4286
2024-01-30T07:15:50.294Z,21
2024-01-30T07:16:50.269Z,20.8571
2024-01-30T07:17:50.300Z,19.9286
2024-01-30T07:18:50.405Z,17.5
2024-01-30T07:19:50.372Z,15.9286
2024-01-30T07:20:50.290Z,15.2143
2024-01-30T07:21:50.323Z,15.3571
2024-01-30T07:22:50.317Z,15.1429
2024-01-30T07:23:50.330Z,15.6429
2024-01-30T07:24:50.371Z,13.6429
2024-01-30T07:25:51.489Z,14
2024-01-30T07:26:50.342Z,12.7143
2024-01-30T07:27:50.367Z,12.3571
2024-01-30T07:28:50.362Z,11.7143
2024-01-30T07:29:50.368Z,11.8571
2024-01-30T07:30:50.477Z,11.1429
2024-01-30T07:31:50.381Z,10.5
2024-01-30T07:32:50.406Z,10.6429
2024-01-30T07:33:50.476Z,10.2143
2024-01-30T07:34:59.217Z,9.42857
2024-01-30T07:35:50.504Z,9.42857
2024-01-30T07:36:50.945Z,9.35714
2024-01-30T07:37:50.431Z,10
2024-01-30T07:38:50.446Z,8.92857
2024-01-30T07:39:50.513Z,9.14286
2024-01-30T07:40:50.463Z,9.14286
2024-01-30T07:41:50.468Z,8.85714
2024-01-30T07:42:50.508Z,8.92857
2024-01-30T07:43:50.476Z,9.14286
2024-01-30T07:44:50.478Z,9.71429
2024-01-30T07:45:50.551Z,9.42857
2024-01-30T07:46:50.483Z,8.71429
2024-01-30T07:47:50.546Z,9
2024-01-30T07:48:52.920Z,8.92857
2024-01-30T07:49:50.780Z,9
2024-01-30T07:50:50.602Z,9.5
2024-01-30T07:51:50.531Z,8.85714
2024-01-30T07:52:50.537Z,8.85714
2024-01-30T07:53:50.570Z,8.92857
2024-01-30T07:54:50.648Z,8.85714
2024-01-30T07:55:50.565Z,8.5
2024-01-30T07:56:50.586Z,9.5
2024-01-30T07:57:52.984Z,8.85714
2024-01-30T07:58:50.565Z,9.21429
2024-01-30T07:59:50.568Z,9.21429
2024-01-30T08:00:50.654Z,8.64286
2024-01-30T08:01:50.678Z,8.71429
2024-01-30T08:02:50.622Z,9.14286
2024-01-30T08:03:50.643Z,8.85714
2024-01-30T08:04:50.901Z,8.71429
2024-01-30T08:05:50.636Z,9.14286
2024-01-30T08:06:50.830Z,9
2024-01-30T08:07:50.736Z,9.14286
2024-01-30T08:08:50.646Z,9.5
2024-01-30T08:09:50.671Z,8.85714
2024-01-30T08:10:50.662Z,8.92857
2024-01-30T08:11:50.659Z,9.71429
2024-01-30T08:12:50.681Z,9.71429
2024-01-30T08:13:50.681Z,9.14286
2024-01-30T08:14:50.692Z,9.14286
2024-01-30T08:15:50.713Z,8.64286
2024-01-30T08:16:50.711Z,8.85714
2024-01-30T08:17:50.758Z,9.14286
2024-01-30T08:18:50.806Z,8.5
2024-01-30T08:19:50.894Z,9
2024-01-30T08:20:50.753Z,8.85714
2024-01-30T08:21:50.799Z,8.5
2024-01-30T08:22:50.749Z,9.14286
2024-01-30T08:23:50.745Z,9.14286
2024-01-30T08:24:50.776Z,8.92857
2024-01-30T08:25:50.777Z,9.35714
2024-01-30T08:26:50.789Z,9.35714
2024-01-30T08:27:50.951Z,8.64286
2024-01-30T08:28:50.861Z,9.14286
2024-01-30T08:29:50.809Z,9.35714
2024-01-30T08:30:50.839Z,8.42857
2024-01-30T08:31:50.828Z,9.35714
2024-01-30T08:32:50.862Z,9.21429
2024-01-30T08:33:50.924Z,9
2024-01-30T08:34:50.951Z,9.21429
2024-01-30T08:35:50.847Z,8.92857
2024-01-30T08:36:50.878Z,9.35714
2024-01-30T08:37:50.846Z,9.64286
2024-01-30T08:38:50.865Z,9.85714
2024-01-30T08:39:50.924Z,9.35714
2024-01-30T08:40:50.907Z,9.92857
2024-01-30T08:41:50.907Z,9.92857
2024-01-30T08:42:50.992Z,9.5
2024-01-30T08:43:50.901Z,9.85714
2024-01-30T08:44:50.916Z,10.8571
2024-01-30T08:45:50.929Z,10.9286
2024-01-30T08:46:50.930Z,9.64286
2024-01-30T08:47:51.069Z,11
2024-01-30T08:48:51.082Z,11
2024-01-30T08:49:51.024Z,10.4286
2024-01-30T08:50:50.952Z,12.3571
2024-01-30T08:51:51.004Z,14.9286
2024-01-30T08:52:50.974Z,16.2143
2024-01-30T08:53:50.997Z,15
2024-01-30T08:54:51.006Z,13.2143
2024-01-30T08:55:51.004Z,12.8571
2024-01-30T08:56:51.005Z,13
2024-01-30T08:57:51.039Z,14
2024-01-30T08:58:51.017Z,15.4286
2024-01-30T08:59:51.027Z,16
2024-01-30T09:00:51.127Z,15.1429
2024-01-30T09:02:00.021Z,13.3571
2024-01-30T09:02:51.144Z,12.8571
2024-01-30T09:03:51.149Z,13.4286
2024-01-30T09:04:51.163Z,12.5
2024-01-30T09:05:51.072Z,13.2143
2024-01-30T09:06:51.132Z,14
2024-01-30T09:07:51.332Z,13.3571
2024-01-30T09:08:51.093Z,12.4286
2024-01-30T09:09:51.197Z,12.8571
2024-01-30T09:10:51.193Z,12.5
2024-01-30T09:11:51.117Z,12.3571
2024-01-30T09:12:51.218Z,13.7143
2024-01-30T09:13:51.118Z,12.9286
2024-01-30T09:14:51.136Z,14.5
2024-01-30T09:15:51.143Z,17.2143
2024-01-30T09:16:51.166Z,12.9286
2024-01-30T09:17:51.170Z,14.8571
2024-01-30T09:18:51.250Z,15.6429
2024-01-30T09:19:51.240Z,17.5
2024-01-30T09:20:51.182Z,15.7143
2024-01-30T09:21:51.208Z,14.6429
2024-01-30T09:22:51.190Z,15
2024-01-30T09:23:51.211Z,15
2024-01-30T09:24:51.244Z,13.1429
2024-01-30T09:25:51.213Z,12.9286
2024-01-30T09:26:51.217Z,15.5
2024-01-30T09:27:51.256Z,15.8571
2024-01-30T09:28:51.245Z,16.2143
2024-01-30T09:29:51.255Z,15.7143
2024-01-30T09:30:51.292Z,17
2024-01-30T09:31:51.284Z,17.2143
2024-01-30T09:32:51.330Z,17.3571
2024-01-30T09:33:51.365Z,16.7143
2024-01-30T09:34:51.408Z,16.6429
2024-01-30T09:35:51.288Z,16.9286
2024-01-30T09:36:51.359Z,16.7143
2024-01-30T09:37:51.296Z,16.2143
2024-01-30T09:38:51.306Z,15.5
2024-01-30T09:39:51.331Z,15.6429
2024-01-30T09:40:51.330Z,15.2143
2024-01-30T09:41:51.341Z,15
2024-01-30T09:42:51.430Z,14.1429
2024-01-30T09:43:51.352Z,13.7143
2024-01-30T09:44:51.382Z,13.3571
2024-01-30T09:45:51.401Z,13
2024-01-30T09:46:51.413Z,13.2143
2024-01-30T09:47:51.411Z,12.8571
2024-01-30T09:48:51.426Z,13.1429
2024-01-30T09:49:51.484Z,12.8571
2024-01-30T09:50:51.415Z,12.5
2024-01-30T09:51:51.440Z,12.7143
2024-01-30T09:52:51.405Z,12.2143
2024-01-30T09:53:51.416Z,13
2024-01-30T09:54:51.452Z,12.2143
2024-01-30T09:55:51.441Z,12.5
2024-01-30T09:56:51.448Z,12.4286
2024-01-30T09:57:51.485Z,12
2024-01-30T09:58:51.462Z,12.5
2024-01-30T09:59:51.461Z,12.3571
2024-01-30T10:00:51.562Z,11.8571
2024-01-30T10:01:51.529Z,12.6429
2024-01-30T10:02:51.483Z,12.5
2024-01-30T10:03:51.587Z,12.4286
2024-01-30T10:04:51.584Z,12.4286
2024-01-30T10:05:51.501Z,12.4286
2024-01-30T10:06:51.590Z,12.1429
2024-01-30T10:07:51.746Z,11.4286
2024-01-30T10:08:51.531Z,12
2024-01-30T10:09:51.566Z,11.6429
2024-01-30T10:10:51.550Z,11.4286
2024-01-30T10:11:51.549Z,11.5
2024-01-30T10:12:51.583Z,11.5
2024-01-30T10:13:51.570Z,11.9286
2024-01-30T10:14:51.572Z,11.1429
2024-01-30T10:15:51.598Z,11.9286
2024-01-30T10:16:51.583Z,11.4286
2024-01-30T10:17:51.639Z,11.3571
2024-01-30T10:18:51.683Z,11
2024-01-30T10:19:51.672Z,10.8571
2024-01-30T10:20:51.629Z,11.2143
2024-01-30T10:21:51.677Z,10.9286
2024-01-30T10:22:51.638Z,10.4286
2024-01-30T10:23:51.667Z,10.9286
2024-01-30T10:24:51.677Z,10.6429
2024-01-30T10:25:51.650Z,10.3571
2024-01-30T10:26:51.654Z,10.6429
2024-01-30T10:27:51.686Z,11.2143
2024-01-30T10:28:51.673Z,10.9286
2024-01-30T10:29:51.675Z,10.7143
2024-01-30T10:30:51.711Z,10.4286
2024-01-30T10:31:51.720Z,11
2024-01-30T10:32:51.818Z,10
2024-01-30T10:33:51.788Z,10.8571
2024-01-30T10:34:51.817Z,10.5
2024-01-30T10:35:51.730Z,9.64286
2024-01-30T10:36:51.782Z,11.3571
2024-01-30T10:37:51.740Z,10.3571
2024-01-30T10:38:51.749Z,11.2143
2024-01-30T10:39:51.824Z,10.6429
2024-01-30T10:40:51.749Z,11
2024-01-30T10:41:51.755Z,11
2024-01-30T10:42:51.862Z,11
2024-01-30T10:43:51.837Z,12
2024-01-30T10:44:51.781Z,10.9286
2024-01-30T10:45:51.821Z,11.4286
2024-01-30T10:46:51.808Z,11
2024-01-30T10:47:51.869Z,11.7143
2024-01-30T10:48:51.896Z,11.3571
2024-01-30T10:49:51.945Z,10.6429
2024-01-30T10:50:57.458Z,11.1429
2024-01-30T10:51:51.873Z,11.3571
2024-01-30T10:52:51.859Z,11.6429
2024-01-30T10:53:51.846Z,11.2143
2024-01-30T10:54:51.873Z,11.4286
2024-01-30T10:55:51.866Z,10.4286
2024-01-30T10:56:51.870Z,11.2143
2024-01-30T10:57:51.940Z,11.6429
2024-01-30T10:58:51.898Z,11.1429
2024-01-30T10:59:51.905Z,10.7143
2024-01-30T11:00:51.971Z,11
2024-01-30T11:01:52.099Z,11.3571
2024-01-30T11:02:51.985Z,11.3571
2024-01-30T11:03:51.973Z,11.3571
2024-01-30T11:04:52.089Z,11.2143
2024-01-30T11:05:52.173Z,11.7143
2024-01-30T11:06:52.213Z,11.9286
2024-01-30T11:07:52.009Z,11
2024-01-30T11:08:51.963Z,10.8571
2024-01-30T11:09:51.993Z,11.6429
2024-01-30T11:10:51.984Z,11.8571
2024-01-30T11:11:52.006Z,11.5
2024-01-30T11:12:52.076Z,11.4286
2024-01-30T11:13:52.013Z,12.2143
2024-01-30T11:14:52.029Z,11.8571
2024-01-30T11:15:52.052Z,11.7143
2024-01-30T11:16:52.030Z,12.5
2024-01-30T11:17:52.292Z,11.5
2024-01-30T11:18:52.147Z,11.3571
2024-01-30T11:19:52.165Z,10.8571
2024-01-30T11:20:52.041Z,10.8571
2024-01-30T11:21:52.078Z,10.5
2024-01-30T11:22:52.066Z,10.4286
2024-01-30T11:23:52.077Z,10.3571
2024-01-30T11:24:52.079Z,10.4286
2024-01-30T11:25:52.087Z,9.71429
2024-01-30T11:26:52.094Z,10.7143
2024-01-30T11:27:52.158Z,10.2143
2024-01-30T11:28:52.111Z,10.3571
2024-01-30T11:29:52.110Z,10.3571
2024-01-30T11:30:52.176Z,10.3571
2024-01-30T11:31:52.139Z,9.85714
2024-01-30T11:32:52.185Z,11
2024-01-30T11:33:52.235Z,10.5
2024-01-30T11:34:52.312Z,9.71429
2024-01-30T11:35:52.150Z,9.64286
2024-01-30T11:36:52.193Z,10
2024-01-30T11:37:52.163Z,10.2143
2024-01-30T11:38:52.168Z,10.5
2024-01-30T11:39:52.187Z,9.64286
2024-01-30T11:40:52.187Z,9.5
2024-01-30T11:41:52.192Z,9.71429
2024-01-30T11:42:52.193Z,9.92857
2024-01-30T11:43:52.194Z,9.85714
2024-01-30T11:44:52.214Z,9.42857
2024-01-30T11:45:52.242Z,10.2143
2024-01-30T11:46:52.220Z,8.92857
2024-01-30T11:47:52.292Z,9.64286
2024-01-30T11:48:52.321Z,9.64286
2024-01-30T11:49:52.281Z,9.64286
2024-01-30T11:50:52.248Z,9.42857
2024-01-30T11:51:52.293Z,9.42857
2024-01-30T11:52:52.276Z,9.5
2024-01-30T11:53:52.272Z,9.85714
2024-01-30T11:54:52.303Z,9.35714
2024-01-30T11:55:52.305Z,8.71429
2024-01-30T11:56:52.291Z,9.35714
2024-01-30T11:57:52.345Z,9.35714
2024-01-30T11:58:52.295Z,9.71429
2024-01-30T11:59:52.308Z,9.5
2024-01-30T12:00:52.432Z,9
2024-01-30T12:01:52.450Z,8.71429
2024-01-30T12:02:52.370Z,8.92857
2024-01-30T12:03:52.412Z,8.5
2024-01-30T12:04:52.361Z,9
2024-01-30T12:05:52.390Z,9.64286
2024-01-30T12:06:52.510Z,9.35714
2024-01-30T12:07:52.452Z,8.42857
2024-01-30T12:08:52.376Z,9.42857
2024-01-30T12:09:52.430Z,8.64286
2024-01-30T12:10:52.382Z,9.64286
2024-01-30T12:11:52.402Z,9
2024-01-30T12:12:52.435Z,9
2024-01-30T12:13:52.408Z,8.85714
2024-01-30T12:14:52.431Z,9.14286
2024-01-30T12:15:52.487Z,8.64286
2024-01-30T12:16:52.442Z,9
2024-01-30T12:17:52.484Z,8.92857
2024-01-30T12:18:53.780Z,8.21429
2024-01-30T12:19:52.544Z,8.92857
2024-01-30T12:20:52.464Z,9.64286
2024-01-30T12:21:52.491Z,8.35714
2024-01-30T12:22:52.485Z,9
2024-01-30T12:23:52.485Z,9
2024-01-30T12:24:52.516Z,8.64286
2024-01-30T12:25:52.504Z,8.85714
2024-01-30T12:26:52.504Z,8.14286
2024-01-30T12:27:53.136Z,9.42857
2024-01-30T12:28:52.524Z,9.21429
2024-01-30T12:29:52.526Z,8.35714